Time;durP1;ratioP1;P1;durP2;ratioP2;P2;SDS_P1;SDS_P2;PMS_P1;PMS_P2;Temp;Humidity;BMP_temperature;BMP_pressure;BME280_temperature;BME280_humidity;BME280_pressure;Samples;Min_cycle;Max_cycle;Signal;HPM_P1;HPM_P2
2022/10/20 00:01:13;;;;;;;6.67;4.08;;;;;;;7.85;75.48;98087.69;1755446;80;25653;-82
2022/10/20 00:03:42;;;;;;;7.17;4.62;;;;;;;7.88;75.57;98091.88;1771328;80;26861;-82
2022/10/20 00:06:23;;;;;;;5.30;4.55;;;;;;;7.85;75.57;98096.25;1759091;80;25672;-81
2022/10/20 00:08:50;;;;;;;7.90;4.15;;;;;;;7.83;75.69;98099.66;1764412;80;25290;-82
2022/10/20 00:11:20;;;;;;;6.80;4.10;;;;;;;7.82;75.67;98100.66;1752288;80;25755;-81
2022/10/20 00:13:50;;;;;;;8.08;4.42;;;;;;;7.81;75.58;98107.05;1757781;80;26097;-81
2022/10/20 00:16:17;;;;;;;6.35;4.37;;;;;;;7.80;75.53;98112.09;1765218;80;27426;-81
2022/10/20 00:18:44;;;;;;;6.70;4.28;;;;;;;7.80;75.58;98112.09;1744412;81;26267;-82
2022/10/20 00:21:17;;;;;;;7.78;3.75;;;;;;;7.79;75.62;98105.04;1765350;80;25691;-81
2022/10/20 00:23:44;;;;;;;12.85;4.15;;;;;;;7.78;75.55;98104.70;1765500;80;25764;-81
2022/10/20 00:26:21;;;;;;;6.90;4.33;;;;;;;7.79;75.65;98103.19;1765542;80;26536;-81
2022/10/20 00:28:49;;;;;;;12.07;4.05;;;;;;;7.78;75.62;98097.98;1765153;80;27496;-81
2022/10/20 00:31:17;;;;;;;6.85;4.15;;;;;;;7.74;75.51;98103.37;1763828;80;25835;-81
2022/10/20 00:33:45;;;;;;;6.33;3.92;;;;;;;7.73;75.66;98105.76;1734983;80;25842;-81
2022/10/20 00:36:15;;;;;;;5.37;3.40;;;;;;;7.72;75.74;98102.23;1755575;80;26457;-81
2022/10/20 00:38:42;;;;;;;6.62;3.62;;;;;;;7.68;75.75;98102.75;1765536;81;25792;-81
2022/10/20 00:41:16;;;;;;;5.95;3.77;;;;;;;7.67;75.87;98099.22;1746456;81;27384;-81
2022/10/20 00:43:59;;;;;;;5.83;3.50;;;;;;;7.67;75.85;98099.73;1756467;80;26657;-81
2022/10/20 00:46:40;;;;;;;7.08;3.25;;;;;;;7.65;75.78;98107.97;1755972;80;25269;-82
2022/10/20 00:49:23;;;;;;;5.78;3.67;;;;;;;7.62;75.67;98100.75;1747029;80;25861;-82
2022/10/20 00:51:51;;;;;;;4.85;2.47;;;;;;;7.58;75.68;98098.44;1746420;80;25841;-81
2022/10/20 00:54:23;;;;;;;5.47;3.27;;;;;;;7.55;75.68;98092.06;1765314;81;27612;-82
2022/10/20 00:56:51;;;;;;;4.75;2.37;;;;;;;7.55;75.71;98091.23;1741694;80;25813;-82
2022/10/20 00:59:21;;;;;;;7.47;3.08;;;;;;;7.49;75.82;98091.91;1765316;80;26396;-82
2022/10/20 01:01:49;;;;;;;6.83;2.47;;;;;;;7.47;75.75;98091.28;1765374;80;25911;-82
2022/10/20 01:04:16;;;;;;;6.78;3.42;;;;;;;7.45;75.72;98096.82;1765510;81;25818;-82
2022/10/20 01:06:43;;;;;;;7.67;2.87;;;;;;;7.42;75.69;98094.98;1765462;80;27314;-82
2022/10/20 01:09:10;;;;;;;4.22;2.42;;;;;;;7.37;75.73;98098.17;1743179;80;25692;-81
2022/10/20 01:11:48;;;;;;;3.37;2.15;;;;;;;7.35;75.73;98102.08;1741204;81;25842;-82
2022/10/20 01:14:53;;;;;;;2.50;1.80;;;;;;;7.32;75.80;98098.39;1756046;81;25705;-82
2022/10/20 01:17:51;;;;;;;4.30;2.05;;;;;;;7.31;75.84;98101.58;1758190;81;25693;-82
2022/10/20 01:20:59;;;;;;;6.00;2.37;;;;;;;7.30;75.89;98098.55;1758359;81;28306;-82
2022/10/20 01:23:49;;;;;;;5.80;1.92;;;;;;;7.29;75.94;98096.88;1717207;81;25851;-82
2022/10/20 01:26:54;;;;;;;4.65;2.55;;;;;;;7.27;75.94;98094.87;1748772;80;25668;-82
2022/10/20 01:29:44;;;;;;;10.50;5.70;;;;;;;7.26;75.96;98091.01;1756099;80;25858;-81
2022/10/20 01:32:21;;;;;;;11.63;6.87;;;;;;;7.24;75.94;98089.87;1745281;81;25706;-82
2022/10/20 01:35:11;;;;;;;10.25;5.47;;;;;;;7.23;75.79;98093.56;1728360;81;28868;-82
2022/10/20 01:37:49;;;;;;;8.83;5.03;;;;;;;7.21;75.70;98097.76;1757145;81;25780;-82
2022/10/20 01:40:30;;;;;;;5.03;3.30;;;;;;;7.19;75.66;98092.22;1736589;81;25845;-82
2022/10/20 01:43:00;;;;;;;5.15;3.15;;;;;;;7.14;75.69;98090.55;1758230;81;25640;-82
2022/10/20 01:45:31;;;;;;;6.70;3.17;;;;;;;7.12;75.71;98091.25;1737047;81;25678;-82
2022/10/20 01:48:02;;;;;;;6.05;3.10;;;;;;;7.10;75.69;98090.59;1739396;81;27370;-82
2022/10/20 01:50:29;;;;;;;6.55;3.05;;;;;;;7.08;75.74;98088.57;1756912;81;25805;-82
2022/10/20 01:52:58;;;;;;;6.35;2.87;;;;;;;7.05;75.69;98086.22;1734185;81;25792;-82
2022/10/20 01:55:25;;;;;;;5.60;2.80;;;;;;;7.03;75.67;98090.92;1734190;81;26549;-82
2022/10/20 01:58:19;;;;;;;6.55;3.30;;;;;;;7.00;75.71;98088.61;1758145;81;25927;-82
2022/10/20 02:00:48;;;;;;;9.65;3.12;;;;;;;7.01;75.71;98090.25;1736729;81;27546;-82
2022/10/20 02:03:47;;;;;;;6.28;3.08;;;;;;;6.99;75.75;98094.98;1739433;81;26331;-82
2022/10/20 02:06:35;;;;;;;4.95;2.67;;;;;;;6.96;75.78;98100.69;1710512;82;25752;-82
2022/10/20 02:09:06;;;;;;;12.30;3.80;;;;;;;6.92;75.85;98094.81;1712888;82;25801;-82
2022/10/20 02:12:02;;;;;;;7.03;3.00;;;;;;;6.84;75.89;98089.48;1727841;82;25942;-82
2022/10/20 02:14:32;;;;;;;4.85;2.90;;;;;;;6.80;75.99;98094.34;1726551;81;27422;-82
2022/10/20 02:17:02;;;;;;;6.55;3.90;;;;;;;6.78;76.03;98087.46;1731101;81;26463;-82
2022/10/20 02:19:37;;;;;;;5.75;3.47;;;;;;;6.78;76.05;98090.98;1721316;82;25834;-82
2022/10/20 02:22:05;;;;;;;5.80;3.65;;;;;;;6.77;75.94;98087.96;1717506;82;25828;-82
2022/10/20 02:24:37;;;;;;;7.45;3.98;;;;;;;6.73;75.83;98096.04;1710547;82;25904;-82
2022/10/20 02:27:24;;;;;;;5.92;3.55;;;;;;;6.69;75.71;98091.17;1727541;82;27464;-82
2022/10/20 02:30:01;;;;;;;6.55;3.12;;;;;;;6.63;75.72;98095.39;1716940;82;25948;-82
2022/10/20 02:32:31;;;;;;;7.22;3.77;;;;;;;6.59;75.67;98096.73;1710484;81;25798;-82
2022/10/20 02:34:58;;;;;;;4.37;3.30;;;;;;;6.50;75.62;98085.18;1705614;82;26606;-82
2022/10/20 02:37:24;;;;;;;6.45;3.37;;;;;;;6.46;75.57;98092.38;1709981;82;26531;-82
2022/10/20 02:39:51;;;;;;;6.95;3.80;;;;;;;6.42;75.52;98097.73;1736008;81;26857;-82
2022/10/20 02:42:17;;;;;;;7.47;3.77;;;;;;;6.37;75.40;98094.73;1739341;80;25771;-82
2022/10/20 02:44:44;;;;;;;5.72;3.80;;;;;;;6.33;75.38;98098.75;1735105;80;25787;-82
2022/10/20 02:47:10;;;;;;;8.45;4.22;;;;;;;6.29;75.47;98101.42;1744260;80;26613;-82
2022/10/20 02:49:37;;;;;;;6.58;3.62;;;;;;;6.23;75.52;98095.41;1765603;80;25243;-82
2022/10/20 02:52:03;;;;;;;7.22;4.12;;;;;;;6.20;75.66;98093.89;1743954;80;27604;-82
2022/10/20 02:54:30;;;;;;;6.03;3.40;;;;;;;6.18;75.75;98089.69;1765220;80;25750;-82
2022/10/20 02:56:57;;;;;;;4.20;3.65;;;;;;;6.16;75.79;98093.06;1765547;80;25684;-82
2022/10/20 02:59:23;;;;;;;4.60;3.87;;;;;;;6.13;75.82;98093.73;1765424;81;26571;-82
2022/10/20 03:01:51;;;;;;;7.67;3.77;;;;;;;6.09;75.83;98096.39;1765446;80;25737;-82
2022/10/20 03:04:17;;;;;;;6.97;4.10;;;;;;;6.04;75.89;98097.38;1765581;80;27565;-82
2022/10/20 03:06:44;;;;;;;6.78;3.80;;;;;;;6.04;75.92;98098.72;1765344;81;25768;-82
2022/10/20 03:09:11;;;;;;;6.70;3.98;;;;;;;6.04;75.84;98102.74;1737320;79;25723;-82
2022/10/20 03:11:37;;;;;;;8.95;3.75;;;;;;;6.01;75.79;98104.44;1750875;80;26039;-82
2022/10/20 03:14:03;;;;;;;7.65;4.08;;;;;;;6.00;75.82;98106.78;1744072;80;25788;-82
2022/10/20 03:16:30;;;;;;;8.93;4.20;;;;;;;5.98;75.78;98113.30;1765380;81;27418;-82
2022/10/20 03:18:57;;;;;;;5.65;4.20;;;;;;;5.94;75.75;98116.80;1765394;80;26351;-82
2022/10/20 03:21:23;;;;;;;6.22;4.97;;;;;;;5.89;75.82;98113.80;1765562;81;25925;-82
2022/10/20 03:23:50;;;;;;;7.10;4.30;;;;;;;5.86;75.85;98119.45;1765429;81;26764;-82
2022/10/20 03:26:16;;;;;;;8.28;4.75;;;;;;;5.84;75.85;98117.42;1736120;80;25737;-82
2022/10/20 03:28:43;;;;;;;6.50;4.72;;;;;;;5.84;75.79;98117.92;1752314;80;27367;-82
2022/10/20 03:31:09;;;;;;;7.97;4.92;;;;;;;5.80;75.71;98117.41;1765291;80;25836;-82
2022/10/20 03:33:36;;;;;;;9.43;5.03;;;;;;;5.77;75.59;98124.45;1751045;80;25736;-82
2022/10/20 03:36:04;;;;;;;11.35;4.92;;;;;;;5.73;75.51;98123.09;1758958;80;26674;-82
2022/10/20 03:38:31;;;;;;;7.05;4.87;;;;;;;5.70;75.54;98131.45;1765144;80;25787;-82
2022/10/20 03:40:57;;;;;;;8.38;5.20;;;;;;;5.62;75.43;98125.58;1765202;80;27400;-82
2022/10/20 03:43:24;;;;;;;11.85;4.58;;;;;;;5.55;75.51;98137.12;1756409;80;25684;-82
2022/10/20 03:46:05;;;;;;;7.45;5.28;;;;;;;5.52;75.56;98141.45;1735069;80;25672;-82
2022/10/20 03:48:31;;;;;;;10.63;4.95;;;;;;;5.51;75.54;98139.77;1764064;80;26871;-82
2022/10/20 03:51:00;;;;;;;9.78;6.15;;;;;;;5.47;75.36;98135.73;1765474;81;25770;-82
2022/10/20 03:53:26;;;;;;;11.25;5.33;;;;;;;5.43;75.31;98133.89;1738114;80;27656;-82
2022/10/20 03:55:53;;;;;;;7.12;5.25;;;;;;;5.39;75.22;98145.41;1750112;80;25881;-82
2022/10/20 03:58:20;;;;;;;10.48;6.37;;;;;;;5.35;75.10;98140.53;1743911;80;25740;-82
2022/10/20 04:00:48;;;;;;;12.30;5.70;;;;;;;5.26;75.06;98139.66;1765447;81;26862;-82
2022/10/20 04:03:14;;;;;;;10.80;5.78;;;;;;;5.21;75.02;98143.80;1764532;80;25702;-82
2022/10/20 04:05:41;;;;;;;7.17;5.30;;;;;;;5.16;75.04;98146.14;1745103;80;27438;-82
2022/10/20 04:08:08;;;;;;;9.05;5.60;;;;;;;5.11;75.18;98139.91;1765436;81;25784;-82
2022/10/20 04:10:34;;;;;;;10.95;5.50;;;;;;;5.08;75.19;98141.06;1765247;80;25830;-82
2022/10/20 04:13:02;;;;;;;9.35;5.75;;;;;;;5.05;75.22;98145.91;1748697;80;26005;-82
2022/10/20 04:15:29;;;;;;;8.23;5.47;;;;;;;5.02;75.19;98142.21;1756476;80;25721;-82
2022/10/20 04:17:55;;;;;;;8.53;5.17;;;;;;;4.98;75.13;98140.34;1735004;80;27369;-81
2022/10/20 04:20:22;;;;;;;10.23;6.03;;;;;;;4.96;75.13;98150.85;1756411;80;26280;-82
2022/10/20 04:22:48;;;;;;;12.10;6.03;;;;;;;4.93;75.24;98157.88;1746665;80;25698;-82
2022/10/20 04:25:15;;;;;;;10.93;5.85;;;;;;;4.92;75.31;98152.19;1765281;81;25975;-82
2022/10/20 04:27:42;;;;;;;11.43;5.12;;;;;;;4.89;75.40;98155.17;1743921;81;26503;-82
2022/10/20 04:30:09;;;;;;;11.35;5.33;;;;;;;4.87;75.46;98156.66;1747350;81;27354;-82
2022/10/20 04:32:36;;;;;;;11.00;5.67;;;;;;;4.86;75.43;98155.48;1762636;80;25982;-82
2022/10/20 04:35:03;;;;;;;12.05;6.12;;;;;;;4.85;75.50;98161.33;1765443;80;25803;-82
2022/10/20 04:37:29;;;;;;;14.70;6.45;;;;;;;4.79;75.45;98157.95;1765309;80;26034;-82
2022/10/20 04:39:56;;;;;;;11.08;8.13;;;;;;;4.74;75.71;98157.57;1765754;80;25974;-82
2022/10/20 04:42:23;;;;;;;19.75;11.63;;;;;;;4.73;75.91;98153.22;1765496;80;27397;-82
2022/10/20 04:44:49;;;;;;;17.87;10.70;;;;;;;4.75;76.06;98155.73;1760960;81;25674;-82
2022/10/20 04:47:16;;;;;;;20.70;11.88;;;;;;;4.77;76.11;98156.42;1748841;81;25773;-82
2022/10/20 04:49:43;;;;;;;23.62;12.98;;;;;;;4.79;76.19;98157.95;1744230;80;25945;-82
2022/10/20 04:52:10;;;;;;;20.08;11.12;;;;;;;4.81;76.19;98157.80;1754600;80;26372;-82
2022/10/20 04:54:36;;;;;;;24.25;10.90;;;;;;;4.82;76.19;98154.14;1755589;80;27414;-81
2022/10/20 04:57:04;;;;;;;12.53;8.88;;;;;;;4.83;76.20;98157.16;1757010;80;25756;-81
2022/10/20 04:59:32;;;;;;;13.90;9.18;;;;;;;4.86;76.21;98155.48;1753342;80;25771;-81
2022/10/20 05:01:58;;;;;;;16.42;8.70;;;;;;;4.87;76.15;98157.16;1759442;80;26014;-81
2022/10/20 05:04:25;;;;;;;16.85;9.53;;;;;;;4.88;76.16;98154.83;1735274;80;25378;-82
2022/10/20 05:06:51;;;;;;;18.05;8.80;;;;;;;4.87;76.08;98154.48;1759910;80;27376;-82
2022/10/20 05:09:19;;;;;;;20.23;9.55;;;;;;;4.86;76.06;98155.48;1765186;80;43983;-81
2022/10/20 05:11:47;;;;;;;20.10;9.38;;;;;;;4.85;76.09;98160.48;1768673;80;25907;-82
2022/10/20 05:14:14;;;;;;;21.15;10.48;;;;;;;4.84;76.04;98160.98;1771627;80;25970;-81
2022/10/20 05:16:40;;;;;;;20.32;11.35;;;;;;;4.84;76.15;98158.80;1751742;80;26472;-82
2022/10/20 05:19:08;;;;;;;20.30;11.03;;;;;;;4.84;76.23;98162.81;1770719;80;27466;-81
2022/10/20 05:21:34;;;;;;;16.95;9.60;;;;;;;4.84;76.27;98168.16;1771676;80;25718;-81
2022/10/20 05:24:04;;;;;;;20.37;11.10;;;;;;;4.86;76.28;98174.20;1771738;80;25793;-82
2022/10/20 05:26:35;;;;;;;15.05;8.80;;;;;;;4.87;76.35;98174.55;1771643;80;26351;-82
2022/10/20 05:29:06;;;;;;;12.50;8.28;;;;;;;4.87;76.44;98175.89;1771797;80;25673;-81
2022/10/20 05:31:39;;;;;;;20.88;10.53;;;;;;;4.88;76.43;98177.56;1771783;80;27355;-82
2022/10/20 05:34:07;;;;;;;17.73;11.03;;;;;;;4.89;76.46;98180.59;1771669;80;25653;-82
2022/10/20 05:36:34;;;;;;;20.30;12.47;;;;;;;4.90;76.39;98192.97;1758198;80;26516;-81
2022/10/20 05:39:01;;;;;;;25.92;12.75;;;;;;;4.88;76.37;98194.95;1741417;80;26917;-82
2022/10/20 05:41:31;;;;;;;22.25;11.65;;;;;;;4.84;76.20;98186.89;1746972;80;26183;-81
2022/10/20 05:44:01;;;;;;;23.25;12.55;;;;;;;4.83;76.15;98186.05;1741217;80;27444;-81
2022/10/20 05:46:32;;;;;;;26.80;12.30;;;;;;;4.80;76.19;98182.87;1744644;80;25823;-82
2022/10/20 05:49:01;;;;;;;16.12;10.15;;;;;;;4.74;76.31;98195.52;1771942;80;25733;-81
2022/10/20 05:51:32;;;;;;;24.02;10.60;;;;;;;4.70;76.35;98187.83;1747831;80;25778;-82
2022/10/20 05:53:59;;;;;;;28.65;10.85;;;;;;;4.70;76.22;98197.19;1740977;80;25662;-81
2022/10/20 05:56:28;;;;;;;24.82;11.95;;;;;;;4.69;76.17;98200.85;1763404;80;26819;-81
2022/10/20 05:58:56;;;;;;;22.70;10.55;;;;;;;4.68;76.21;98205.02;1771740;79;25772;-82
2022/10/20 06:01:26;;;;;;;24.63;11.63;;;;;;;4.68;76.29;98206.35;1771812;80;25713;-81
2022/10/20 06:03:59;;;;;;;27.52;11.55;;;;;;;4.71;76.37;98210.87;1771692;80;26033;-81
2022/10/20 06:06:28;;;;;;;18.48;9.90;;;;;;;4.74;76.40;98211.56;1771837;80;25731;-81
2022/10/20 06:08:57;;;;;;;18.87;9.55;;;;;;;4.77;76.46;98209.92;1771806;80;27352;-81
2022/10/20 06:11:24;;;;;;;14.05;9.68;;;;;;;4.76;76.48;98215.77;1765116;80;25933;-81
2022/10/20 06:13:52;;;;;;;15.10;9.40;;;;;;;4.77;76.50;98221.95;1749829;81;25750;-81
2022/10/20 06:16:21;;;;;;;19.37;9.45;;;;;;;4.75;76.58;98226.13;1735063;81;26094;-82
2022/10/20 06:18:48;;;;;;;15.58;9.70;;;;;;;4.75;76.73;98222.61;1745200;81;25694;-82
2022/10/20 06:21:25;;;;;;;16.67;9.93;;;;;;;4.76;76.83;98220.27;1736910;81;27431;-82
2022/10/20 06:23:52;;;;;;;15.38;10.15;;;;;;;4.79;76.88;98226.66;1744496;81;25728;-82
2022/10/20 06:26:25;;;;;;;17.75;10.30;;;;;;;4.81;77.00;98217.49;1750112;81;25931;-82
2022/10/20 06:28:54;;;;;;;16.15;10.20;;;;;;;4.77;77.03;98227.30;1747972;81;25991;-81
2022/10/20 06:31:28;;;;;;;17.27;10.18;;;;;;;4.81;77.17;98224.67;1731752;81;25657;-82
2022/10/20 06:33:54;;;;;;;16.45;10.32;;;;;;;4.83;77.22;98229.38;1750061;81;27371;-82
2022/10/20 06:36:22;;;;;;;15.32;10.88;;;;;;;4.85;77.23;98231.38;1739424;81;25900;-82
2022/10/20 06:38:58;;;;;;;21.07;12.20;;;;;;;4.88;77.32;98231.91;1740015;81;25821;-81
2022/10/20 06:41:26;;;;;;;25.00;14.10;;;;;;;4.92;77.31;98235.13;1746106;81;25997;-82
2022/10/20 06:43:57;;;;;;;22.52;13.08;;;;;;;4.96;77.19;98237.81;1720442;81;25825;-81
2022/10/20 06:46:22;;;;;;;22.13;13.15;;;;;;;4.93;77.07;98236.81;1722302;81;28429;-82
2022/10/20 06:48:49;;;;;;;22.52;13.62;;;;;;;4.96;77.32;98237.81;1749926;81;25799;-82
2022/10/20 06:51:20;;;;;;;21.05;13.62;;;;;;;4.98;77.24;98239.84;1750183;81;25263;-81
2022/10/20 06:53:48;;;;;;;20.88;12.65;;;;;;;4.97;77.12;98235.48;1740309;81;26059;-82
2022/10/20 06:56:18;;;;;;;21.62;14.28;;;;;;;5.01;77.25;98236.86;1739725;81;25781;-81
2022/10/20 06:58:48;;;;;;;21.65;12.33;;;;;;;5.07;77.35;98238.92;1749928;81;27452;-82
2022/10/20 07:01:22;;;;;;;27.52;14.75;;;;;;;5.12;77.35;98236.60;1731631;81;25908;-81
2022/10/20 07:03:51;;;;;;;27.65;14.83;;;;;;;5.14;77.17;98239.13;1748948;81;25796;-82
2022/10/20 07:06:23;;;;;;;28.50;15.13;;;;;;;5.20;77.27;98235.30;1750231;81;26106;-81
2022/10/20 07:08:52;;;;;;;26.20;14.07;;;;;;;5.28;77.16;98228.69;1722292;81;25828;-81
2022/10/20 07:11:23;;;;;;;31.60;18.77;;;;;;;5.30;76.80;98225.36;1721060;81;27334;-82
2022/10/20 07:13:50;;;;;;;34.17;23.03;;;;;;;5.34;76.76;98227.20;1727892;81;25705;-81
2022/10/20 07:16:21;;;;;;;28.73;18.62;;;;;;;5.38;76.79;98225.39;1728082;81;25255;-82
2022/10/20 07:18:48;;;;;;;12.88;9.33;;;;;;;5.43;76.79;98224.40;1752922;81;26060;-81
2022/10/20 07:21:18;;;;;;;17.80;9.48;;;;;;;5.47;76.63;98223.59;1758156;81;25725;-82
2022/10/20 07:23:46;;;;;;;16.32;10.03;;;;;;;5.50;76.45;98222.44;1755535;81;28205;-81
2022/10/20 07:26:20;;;;;;;15.88;9.63;;;;;;;5.58;76.48;98223.81;1796586;79;25384;-82
2022/10/20 07:28:50;;;;;;;18.60;9.78;;;;;;;5.67;76.35;98222.38;1807694;79;25686;-81
2022/10/20 07:31:22;;;;;;;15.25;9.93;;;;;;;5.84;76.32;98221.08;1807387;79;25927;-82
2022/10/20 07:33:49;;;;;;;17.92;10.23;;;;;;;5.95;76.22;98224.33;1806564;79;25737;-81
2022/10/20 07:36:26;;;;;;;13.75;8.88;;;;;;;6.14;76.39;98220.05;1807410;79;27409;-82
2022/10/20 07:38:56;;;;;;;13.30;7.92;;;;;;;6.37;76.07;98215.41;1795431;79;25697;-82
2022/10/20 07:41:24;;;;;;;14.60;9.08;;;;;;;6.65;76.16;98213.23;1788334;79;25496;-82
2022/10/20 07:43:52;;;;;;;14.87;9.30;;;;;;;6.95;75.79;98215.77;1775296;79;26090;-81
2022/10/20 07:46:18;;;;;;;12.33;8.20;;;;;;;7.23;75.53;98205.84;1777223;79;26077;-82
2022/10/20 07:48:45;;;;;;;16.15;8.63;;;;;;;7.49;75.11;98212.30;1807404;79;27507;-82
2022/10/20 07:51:30;;;;;;;11.70;8.20;;;;;;;7.72;74.74;98207.55;1785847;79;26270;-82
2022/10/20 07:54:05;;;;;;;13.68;8.33;;;;;;;7.94;74.39;98207.61;1774949;79;25768;-82
2022/10/20 07:56:41;;;;;;;9.93;6.87;;;;;;;8.14;73.95;98199.94;1797629;79;26110;-81
2022/10/20 07:59:10;;;;;;;14.78;7.67;;;;;;;8.38;73.87;98186.04;1788942;79;25267;-82
2022/10/20 08:01:37;;;;;;;10.93;6.87;;;;;;;8.58;73.48;98184.54;1784713;79;28279;-82
2022/10/20 08:04:04;;;;;;;12.55;6.53;;;;;;;8.73;73.05;98181.40;1807393;79;25811;-82
2022/10/20 08:06:30;;;;;;;11.08;6.35;;;;;;;8.91;72.78;98181.93;1807521;79;25809;-82
2022/10/20 08:08:58;;;;;;;8.98;5.90;;;;;;;9.10;72.34;98169.79;1807388;79;26777;-82
2022/10/20 08:11:26;;;;;;;10.28;6.05;;;;;;;9.32;72.22;98174.27;1807386;79;25930;-83
2022/10/20 08:13:52;;;;;;;9.33;6.45;;;;;;;9.55;71.87;98168.79;1798150;79;28293;-82
2022/10/20 08:16:19;;;;;;;8.30;5.10;;;;;;;9.77;71.53;98169.73;1789128;79;25717;-82
2022/10/20 08:18:46;;;;;;;9.30;6.28;;;;;;;9.97;71.06;98168.62;1804658;79;25727;-82
2022/10/20 08:21:18;;;;;;;9.98;6.62;;;;;;;10.19;70.74;98171.71;1804531;79;25975;-82
2022/10/20 08:23:47;;;;;;;8.18;5.35;;;;;;;10.32;69.58;98169.67;1771045;79;26197;-83
2022/10/20 08:26:22;;;;;;;8.95;6.22;;;;;;;10.34;68.80;98168.98;1793334;79;27399;-82
2022/10/20 08:28:51;;;;;;;10.40;6.03;;;;;;;10.40;68.94;98164.14;1792850;78;25243;-82
2022/10/20 08:31:17;;;;;;;11.85;6.97;;;;;;;10.59;69.27;98166.74;1793405;79;25774;-82
2022/10/20 08:33:44;;;;;;;7.22;4.72;;;;;;;10.90;69.32;98169.92;1772154;79;25877;-82
2022/10/20 08:36:13;;;;;;;8.73;4.50;;;;;;;11.22;68.47;98166.34;1791395;78;25754;-82
2022/10/20 08:38:41;;;;;;;9.50;5.10;;;;;;;11.28;67.13;98170.95;1768460;80;27319;-82
2022/10/20 08:41:18;;;;;;;7.33;5.40;;;;;;;11.42;66.91;98171.36;1767472;80;25734;-82
2022/10/20 08:43:47;;;;;;;7.78;4.40;;;;;;;11.64;66.59;98168.05;1750177;81;25686;-82
2022/10/20 08:46:17;;;;;;;10.48;4.97;;;;;;;11.69;65.42;98169.66;1747016;80;26210;-82
2022/10/20 08:48:46;;;;;;;8.90;4.40;;;;;;;11.72;65.61;98166.53;1768642;80;26302;-82
2022/10/20 08:51:20;;;;;;;8.78;3.75;;;;;;;11.77;64.86;98165.46;1768506;80;27552;-82
2022/10/20 08:53:50;;;;;;;6.53;3.90;;;;;;;11.59;63.64;98167.33;1758504;80;25755;-82
2022/10/20 08:56:22;;;;;;;9.23;4.08;;;;;;;11.59;63.69;98162.44;1758311;80;25761;-82
2022/10/20 08:58:48;;;;;;;4.85;3.60;;;;;;;11.71;64.00;98161.64;1747482;80;25991;-82
2022/10/20 09:01:26;;;;;;;3.87;3.27;;;;;;;11.94;64.11;98160.04;1768641;80;25752;-82
2022/10/20 09:04:18;;;;;;;7.45;4.12;;;;;;;12.15;63.30;98158.55;1746902;80;27576;-82
2022/10/20 09:06:49;;;;;;;7.17;3.65;;;;;;;12.29;62.49;98161.30;1768293;80;25758;-82
2022/10/20 09:09:19;;;;;;;6.15;3.30;;;;;;;12.41;62.40;98159.16;1768562;80;25754;-82
2022/10/20 09:11:46;;;;;;;3.75;2.67;;;;;;;12.53;62.54;98157.52;1746821;80;26001;-83
2022/10/20 09:14:15;;;;;;;3.52;3.05;;;;;;;12.68;62.08;98151.89;1763096;80;25714;-82
2022/10/20 09:16:45;;;;;;;4.67;3.10;;;;;;;12.82;61.96;98150.03;1765691;80;27384;-82
2022/10/20 09:19:19;;;;;;;5.85;2.80;;;;;;;12.90;60.37;98147.14;1741464;80;25964;-81
2022/10/20 09:21:50;;;;;;;5.45;3.20;;;;;;;12.91;60.24;98144.74;1765537;80;26441;-82
2022/10/20 09:24:20;;;;;;;5.12;2.92;;;;;;;12.93;59.40;98143.98;1765635;80;27001;-83
2022/10/20 09:26:49;;;;;;;4.22;2.10;;;;;;;12.90;58.91;98140.36;1765389;81;25732;-82
2022/10/20 09:29:19;;;;;;;3.15;2.27;;;;;;;12.89;59.27;98138.17;1765470;80;27358;-82
2022/10/20 09:31:54;;;;;;;4.45;2.47;;;;;;;13.00;58.74;98135.35;1764801;80;25789;-82
2022/10/20 09:34:28;;;;;;;3.72;2.37;;;;;;;13.19;58.58;98134.52;1765309;80;25657;-82
2022/10/20 09:37:10;;;;;;;2.17;1.98;;;;;;;13.38;57.82;98129.30;1765490;80;25982;-82
2022/10/20 09:39:50;;;;;;;5.12;2.33;;;;;;;13.43;57.89;98126.25;1764551;80;25720;-82
2022/10/20 09:42:29;;;;;;;6.08;2.25;;;;;;;13.58;57.58;98126.01;1748671;80;28220;-83
2022/10/20 09:45:00;;;;;;;5.87;2.65;;;;;;;13.69;57.42;98126.70;1740851;80;26062;-83
2022/10/20 09:47:28;;;;;;;4.20;2.62;;;;;;;13.72;57.09;98122.22;1765420;80;25750;-82
2022/10/20 09:50:05;;;;;;;8.50;3.55;;;;;;;13.80;57.12;98122.48;1744032;80;26343;-83
2022/10/20 09:52:46;;;;;;;3.33;2.27;;;;;;;13.90;56.55;98116.08;1749825;80;25776;-82
2022/10/20 09:55:28;;;;;;;8.93;2.98;;;;;;;14.01;56.32;98109.97;1759648;80;27378;-82
2022/10/20 09:57:58;;;;;;;4.33;2.22;;;;;;;14.12;56.11;98109.84;1765496;80;25908;-82
2022/10/20 10:00:35;;;;;;;5.10;2.20;;;;;;;14.19;56.10;98101.95;1765569;80;25799;-82
2022/10/20 10:03:22;;;;;;;2.72;1.77;;;;;;;14.30;56.00;98098.55;1765501;81;26750;-83
2022/10/20 10:05:58;;;;;;;3.58;2.22;;;;;;;14.37;55.99;98093.06;1765486;81;26009;-83
2022/10/20 10:08:29;;;;;;;3.17;2.02;;;;;;;14.45;55.56;98091.49;1742604;80;27369;-82
2022/10/20 10:11:14;;;;;;;3.62;1.80;;;;;;;14.45;55.11;98092.85;1734647;81;25707;-82
2022/10/20 10:13:48;;;;;;;1.92;1.75;;;;;;;14.45;55.05;98089.30;1759886;80;25712;-82
2022/10/20 10:16:19;;;;;;;2.35;1.50;;;;;;;14.44;55.21;98083.03;1750707;80;26348;-83
2022/10/20 10:19:00;;;;;;;2.35;1.70;;;;;;;14.46;55.35;98091.80;1759855;80;25865;-82
2022/10/20 10:21:29;;;;;;;3.40;2.02;;;;;;;14.48;54.97;98086.98;1749788;81;27384;-82
2022/10/20 10:24:00;;;;;;;2.45;1.70;;;;;;;14.55;54.50;98086.93;1755950;80;26017;-83
2022/10/20 10:26:47;;;;;;;2.85;1.60;;;;;;;14.54;54.57;98079.30;1747467;80;25781;-83
2022/10/20 10:29:28;;;;;;;1.90;1.42;;;;;;;14.63;54.36;98077.97;1734205;80;25960;-83
2022/10/20 10:32:20;;;;;;;1.90;1.37;;;;;;;14.72;54.12;98067.69;1754262;80;26072;-82
2022/10/20 10:35:07;;;;;;;3.55;1.32;;;;;;;14.71;53.58;98066.85;1747494;80;27381;-82
2022/10/20 10:37:36;;;;;;;2.12;1.42;;;;;;;14.79;53.85;98068.45;1760408;80;26383;-82
2022/10/20 10:40:19;;;;;;;2.12;1.50;;;;;;;14.81;53.03;98071.78;1749266;80;25863;-83
2022/10/20 10:43:06;;;;;;;4.03;1.32;;;;;;;14.88;53.43;98060.84;1761373;80;26861;-83
2022/10/20 10:45:53;;;;;;;2.10;1.32;;;;;;;15.07;53.45;98064.75;1765427;81;25749;-82
2022/10/20 10:48:37;;;;;;;2.33;1.40;;;;;;;15.27;52.90;98060.98;1759832;80;27426;-83
2022/10/20 10:51:54;;;;;;;2.80;1.47;;;;;;;15.35;52.47;98056.60;1753635;80;25805;-83
2022/10/20 10:54:49;;;;;;;1.90;1.45;;;;;;;15.54;52.24;98059.64;1752166;80;25269;-84
2022/10/20 10:57:45;;;;;;;3.20;1.70;;;;;;;15.76;51.55;98057.31;1745433;80;26925;-82
2022/10/20 11:00:39;;;;;;;3.52;1.70;;;;;;;15.87;51.19;98057.91;1740080;80;26009;-83
2022/10/20 11:03:20;;;;;;;1.62;1.25;;;;;;;15.98;51.35;98057.13;1765409;81;27438;-83
2022/10/20 11:06:07;;;;;;;2.08;1.67;;;;;;;16.11;50.31;98046.58;1764351;80;26502;-83
2022/10/20 11:09:03;;;;;;;2.17;1.75;;;;;;;16.24;50.76;98046.39;1765275;80;25854;-83
2022/10/20 11:11:43;;;;;;;2.83;1.22;;;;;;;16.46;50.72;98036.63;1764439;80;26862;-82
2022/10/20 11:14:42;;;;;;;2.15;1.42;;;;;;;16.69;50.22;98034.50;1740929;81;25892;-83
2022/10/20 11:17:55;;;;;;;2.10;1.77;;;;;;;16.83;49.57;98035.94;1724369;81;27472;-84
2022/10/20 11:20:30;;;;;;;4.15;2.00;;;;;;;16.74;48.53;98030.55;1740587;81;25834;-83
2022/10/20 11:23:23;;;;;;;6.47;2.05;;;;;;;16.65;48.93;98019.70;1750295;81;25762;-83
2022/10/20 11:26:10;;;;;;;1.75;1.57;;;;;;;16.78;48.98;98026.30;1739816;81;25991;-82
2022/10/20 11:28:44;;;;;;;3.75;1.72;;;;;;;16.88;48.32;98015.62;1749898;81;25840;-83
2022/10/20 11:31:31;;;;;;;3.30;1.50;;;;;;;16.99;48.51;98024.05;1749852;81;28368;-84
2022/10/20 11:34:08;;;;;;;3.67;1.30;;;;;;;17.06;47.84;98017.92;1750004;81;25838;-83
2022/10/20 11:36:40;;;;;;;5.12;1.32;;;;;;;17.19;48.69;98012.22;1749994;81;25777;-83
2022/10/20 11:39:12;;;;;;;1.12;1.00;;;;;;;17.40;48.43;98017.05;1716761;81;25992;-84
2022/10/20 11:41:48;;;;;;;2.15;1.30;;;;;;;17.54;47.19;97980.77;1738219;81;26219;-84
2022/10/20 11:44:25;;;;;;;2.92;1.05;;;;;;;17.54;47.19;97980.77;1730186;81;27475;-83
2022/10/20 11:47:11;;;;;;;2.60;1.02;;;;;;;17.63;47.06;97996.55;1751736;81;25811;-84
2022/10/20 11:49:40;;;;;;;2.02;1.10;;;;;;;17.66;46.31;97992.52;1749106;81;25487;-82
2022/10/20 11:52:29;;;;;;;2.72;1.02;;;;;;;17.48;46.46;97985.31;1749195;81;26006;-81
2022/10/20 11:55:21;;;;;;;1.10;1.00;;;;;;;17.60;46.27;97988.00;1749186;81;25692;-81
2022/10/20 11:58:02;;;;;;;1.10;1.00;;;;;;;17.46;45.01;97983.35;1750210;81;27424;-82
2022/10/20 12:01:06;;;;;;;2.65;1.07;;;;;;;17.13;44.63;97980.45;1744619;81;25802;-82